Time;durP1;ratioP1;P1;durP2;ratioP2;P2;SDS_P1;SDS_P2;PMS_P1;PMS_P2;Temp;Humidity;BMP_temperature;BMP_pressure;BME280_temperature;BME280_humidity;BME280_pressure;Samples;Min_cycle;Max_cycle;Signal;HPM_P1;HPM_P2
2022/06/06 00:02:05;;;;;;;7.78;4.45;;;;;;;18.31;43.53;100628.47;5017032;28;20145;-71
2022/06/06 00:04:34;;;;;;;4.93;4.18;;;;;;;18.26;43.63;100620.94;5016705;28;20050;-70
2022/06/06 00:07:02;;;;;;;4.90;3.83;;;;;;;18.21;43.60;100622.66;5016341;28;20056;-70
2022/06/06 00:09:29;;;;;;;7.43;3.97;;;;;;;18.25;43.69;100619.28;5015863;28;20057;-71
2022/06/06 00:11:58;;;;;;;8.82;4.20;;;;;;;18.25;43.43;100618.47;5016604;28;20129;-71
2022/06/06 00:14:24;;;;;;;6.80;4.30;;;;;;;18.18;43.70;100604.91;5016457;28;20100;-70
2022/06/06 00:16:51;;;;;;;6.18;3.58;;;;;;;18.12;44.08;100604.88;5016150;28;20100;-70
2022/06/06 00:19:18;;;;;;;6.65;4.35;;;;;;;18.13;44.20;100606.53;5016310;28;20050;-70
2022/06/06 00:21:44;;;;;;;6.90;4.32;;;;;;;18.15;44.29;100609.94;5016188;28;20104;-71
2022/06/06 00:24:11;;;;;;;7.30;4.35;;;;;;;18.13;44.36;100614.69;5016571;28;20126;-70
2022/06/06 00:26:39;;;;;;;7.00;4.10;;;;;;;18.15;44.26;100618.06;5016349;28;20058;-72
2022/06/06 00:29:06;;;;;;;4.95;4.22;;;;;;;18.05;44.60;100616.59;5016668;28;20093;-71
2022/06/06 00:37:08;;;;;;;7.45;4.13;;;;;;;17.97;44.82;100622.25;5015775;28;20085;-70
2022/06/06 00:39:35;;;;;;;7.20;4.45;;;;;;;17.90;45.13;100626.03;5016421;28;20088;-69
2022/06/06 00:42:09;;;;;;;8.57;4.72;;;;;;;17.94;45.21;100622.66;5016260;28;20454;-71
2022/06/06 00:44:36;;;;;;;9.95;4.40;;;;;;;17.94;45.26;100630.81;5015726;28;20081;-70
2022/06/06 00:47:13;;;;;;;7.97;4.13;;;;;;;17.73;47.54;100626.47;5016295;28;20474;-71
2022/06/06 00:49:57;;;;;;;7.72;4.68;;;;;;;17.62;48.99;100618.13;5016078;28;20129;-70
2022/06/06 00:52:28;;;;;;;7.72;4.82;;;;;;;17.44;50.56;100625.00;5016145;28;20061;-71
2022/06/06 00:54:56;;;;;;;;;;;;;;;17.60;51.45;100621.03;5016764;28;20073;-70
2022/06/06 00:57:31;;;;;;;6.57;5.00;;;;;;;17.58;52.01;100621.25;5015775;28;19921;-71
2022/06/06 01:00:02;;;;;;;9.60;5.88;;;;;;;17.60;52.62;100615.59;5015918;28;20061;-71
2022/06/06 01:02:29;;;;;;;5.32;4.82;;;;;;;17.55;52.46;100613.53;5015583;28;20528;-71
2022/06/06 01:04:55;;;;;;;5.13;4.50;;;;;;;17.35;54.48;100599.13;5014982;28;20136;-71
2022/06/06 01:07:22;;;;;;;8.90;5.15;;;;;;;17.05;54.94;100607.59;5016435;28;20060;-71
2022/06/06 01:09:49;;;;;;;15.38;6.82;;;;;;;16.94;59.56;100599.25;5015979;28;20423;-72
2022/06/06 01:12:19;;;;;;;10.02;6.18;;;;;;;16.38;61.73;100601.13;5015480;28;20077;-71
2022/06/06 01:14:56;;;;;;;8.40;5.82;;;;;;;16.18;62.27;100594.78;5015618;28;20462;-71
2022/06/06 01:17:22;;;;;;;12.55;5.65;;;;;;;16.17;61.49;100593.94;5015292;28;20085;-71
2022/06/06 01:20:32;;;;;;;9.85;6.03;;;;;;;16.13;61.64;100592.66;5014701;28;20093;-71
2022/06/06 01:23:08;;;;;;;10.60;5.93;;;;;;;16.34;60.02;100585.50;5014840;28;20077;-70
2022/06/06 01:26:02;;;;;;;6.25;5.65;;;;;;;16.42;60.66;100579.88;5015021;28;20455;-70
2022/06/06 01:28:53;;;;;;;8.88;6.50;;;;;;;16.49;61.56;100598.88;5015503;28;20100;-70
2022/06/06 01:31:32;;;;;;;16.08;6.35;;;;;;;16.54;62.52;100583.72;5015803;28;20046;-70
2022/06/06 01:34:06;;;;;;;10.25;6.32;;;;;;;16.53;60.90;100584.75;5015298;28;20062;-73
2022/06/06 01:36:34;;;;;;;6.50;5.90;;;;;;;16.57;61.20;100587.88;5014817;28;20078;-71
2022/06/06 01:39:05;;;;;;;8.00;6.35;;;;;;;16.56;60.60;100588.94;5014659;28;20050;-71
2022/06/06 01:41:32;;;;;;;6.78;5.95;;;;;;;16.57;60.77;100594.13;5015030;28;20551;-71
2022/06/06 01:44:09;;;;;;;7.60;6.03;;;;;;;16.62;61.77;100590.84;5014687;28;20511;-71
2022/06/06 01:46:36;;;;;;;8.15;6.32;;;;;;;16.60;59.79;100593.72;5015031;28;20057;-70
2022/06/06 01:49:08;;;;;;;9.27;5.70;;;;;;;16.63;59.15;100590.63;5014546;28;20129;-70
2022/06/06 01:51:35;;;;;;;6.88;6.18;;;;;;;16.70;61.10;100593.34;5015916;28;20521;-69
2022/06/06 01:54:02;;;;;;;7.85;5.88;;;;;;;16.75;61.03;100600.84;5014940;28;20478;-71
2022/06/06 01:56:33;;;;;;;6.90;6.20;;;;;;;16.75;60.12;100600.84;5014736;28;20453;-70
2022/06/06 01:59:00;;;;;;;10.27;6.43;;;;;;;16.79;60.59;100604.84;5014446;28;20465;-72
2022/06/06 02:01:26;;;;;;;10.30;6.45;;;;;;;16.79;60.84;100594.84;5014780;28;20529;-71
2022/06/06 02:03:53;;;;;;;8.05;6.03;;;;;;;16.82;60.51;100597.16;5014359;28;20050;-71
2022/06/06 02:06:20;;;;;;;8.30;6.13;;;;;;;16.81;60.38;100600.03;5014716;28;20104;-71
2022/06/06 02:08:47;;;;;;;8.88;6.55;;;;;;;16.82;60.47;100599.03;5014407;28;20050;-71
2022/06/06 02:11:13;;;;;;;9.13;5.45;;;;;;;16.84;60.20;100588.81;5014749;28;20086;-71
2022/06/06 02:13:40;;;;;;;7.35;5.97;;;;;;;16.86;60.40;100589.44;5014683;28;20152;-71
2022/06/06 02:16:07;;;;;;;6.80;6.00;;;;;;;16.82;59.79;100585.47;5014628;28;20050;-71
2022/06/06 02:18:34;;;;;;;6.60;5.85;;;;;;;16.82;60.02;100583.59;5016869;28;20104;-71
2022/06/06 02:21:03;;;;;;;10.35;6.13;;;;;;;16.81;60.59;100583.78;5018588;28;20045;-70
2022/06/06 02:23:30;;;;;;;12.05;6.55;;;;;;;16.84;60.18;100586.09;5018333;28;20490;-70
2022/06/06 02:25:57;;;;;;;7.78;6.25;;;;;;;16.84;58.91;100600.47;5018905;28;20141;-70
2022/06/06 02:28:25;;;;;;;8.43;5.78;;;;;;;16.82;58.68;100593.59;5018542;28;20136;-70
2022/06/06 02:30:52;;;;;;;10.93;6.38;;;;;;;16.75;59.37;100603.56;5018074;28;20045;-71
2022/06/06 02:33:19;;;;;;;10.20;6.55;;;;;;;16.77;59.19;100604.22;5018444;28;20073;-72
2022/06/06 02:35:46;;;;;;;8.95;6.57;;;;;;;16.54;59.71;100605.41;5019181;28;20072;-71
2022/06/06 02:38:13;;;;;;;8.40;6.82;;;;;;;16.47;60.75;100604.50;5019502;28;20437;-71
2022/06/06 02:40:41;;;;;;;7.22;6.43;;;;;;;16.14;61.86;100609.75;5018910;28;20108;-71
2022/06/06 02:43:07;;;;;;;10.25;7.22;;;;;;;16.06;62.91;100608.03;5017829;28;20081;-71
2022/06/06 02:45:34;;;;;;;13.57;7.80;;;;;;;16.09;63.81;100604.06;5018621;28;20054;-71
2022/06/06 02:48:08;;;;;;;12.60;7.75;;;;;;;16.19;63.92;100600.00;5018629;28;20528;-71
2022/06/06 02:50:36;;;;;;;11.32;8.50;;;;;;;16.13;65.20;100606.22;5018002;28;20054;-70
2022/06/06 02:53:02;;;;;;;11.18;7.85;;;;;;;16.01;65.69;100617.78;5018903;28;20073;-70
2022/06/06 02:55:31;;;;;;;10.32;8.40;;;;;;;15.93;66.13;100610.66;5018672;28;20073;-71
2022/06/06 02:57:58;;;;;;;12.73;9.05;;;;;;;15.97;67.03;100620.03;5018395;28;20064;-71
2022/06/06 03:00:28;;;;;;;10.55;8.32;;;;;;;15.92;66.88;100622.53;5018808;28;20133;-71
2022/06/06 03:02:55;;;;;;;12.77;9.43;;;;;;;15.92;68.02;100611.69;5018493;28;20046;-70
2022/06/06 03:05:33;;;;;;;10.48;9.02;;;;;;;15.67;69.23;100622.97;5017342;28;20050;-70
2022/06/06 03:08:17;;;;;;;10.00;9.00;;;;;;;15.68;69.42;100631.91;5018106;28;20141;-71
2022/06/06 03:10:49;;;;;;;9.77;8.88;;;;;;;15.63;70.01;100634.34;5017561;28;20054;-71
2022/06/06 03:13:53;;;;;;;11.05;9.95;;;;;;;15.51;70.68;100647.56;5017326;28;20056;-71
2022/06/06 03:22:30;;;;;;;14.40;11.10;;;;;;;15.28;74.93;100663.13;5017446;28;20045;-71
2022/06/06 03:25:47;;;;;;;15.95;11.70;;;;;;;15.09;77.74;100664.59;5018213;28;20058;-71
2022/06/06 03:28:26;;;;;;;15.57;12.95;;;;;;;15.09;79.13;100659.19;4938077;29;20083;-70
2022/06/06 03:31:20;;;;;;;15.02;13.27;;;;;;;14.99;80.97;100673.84;4937648;29;20071;-70
2022/06/06 03:33:56;;;;;;;16.40;14.77;;;;;;;14.79;81.54;100661.97;4937188;29;20051;-70
2022/06/06 03:36:26;;;;;;;17.52;15.48;;;;;;;14.73;83.50;100662.72;4938093;29;20087;-69
2022/06/06 03:39:12;;;;;;;18.05;15.52;;;;;;;14.65;83.28;100655.53;4939060;29;20150;-70
2022/06/06 03:41:51;;;;;;;18.95;15.13;;;;;;;14.76;84.10;100657.78;4937928;28;20508;-70
2022/06/06 03:44:17;;;;;;;17.85;15.63;;;;;;;14.68;84.63;100668.66;4938158;29;20115;-70
2022/06/06 03:46:58;;;;;;;17.88;16.17;;;;;;;14.63;84.93;100662.97;4938038;29;20495;-70
2022/06/06 03:49:33;;;;;;;18.58;15.30;;;;;;;14.73;84.61;100660.84;4937953;29;20079;-69
2022/06/06 03:52:14;;;;;;;18.52;16.58;;;;;;;14.82;84.08;100658.06;4938487;29;20052;-69
2022/06/06 03:55:25;;;;;;;19.80;17.42;;;;;;;14.81;84.46;100661.75;4937644;29;20055;-69
2022/06/06 03:57:54;;;;;;;18.80;16.90;;;;;;;14.81;85.05;100662.63;4881398;29;20139;-69
2022/06/06 04:00:21;;;;;;;22.67;16.90;;;;;;;14.79;85.19;100664.66;4881095;29;20057;-68
2022/06/06 04:02:49;;;;;;;24.63;17.70;;;;;;;14.67;86.38;100660.72;4927282;29;20606;-69
2022/06/06 04:05:18;;;;;;;20.65;17.63;;;;;;;14.71;86.38;100662.91;4937173;29;20090;-69
2022/06/06 04:07:45;;;;;;;23.20;18.45;;;;;;;14.71;86.74;100662.06;4936811;29;20524;-69
2022/06/06 04:10:13;;;;;;;17.30;15.48;;;;;;;14.75;86.86;100661.50;4937186;29;20083;-69
2022/06/06 04:13:04;;;;;;;22.38;15.75;;;;;;;14.80;86.83;100665.50;4936866;29;20182;-69
2022/06/06 04:15:55;;;;;;;16.38;14.77;;;;;;;14.75;86.15;100668.78;4937375;29;20047;-69
2022/06/06 04:18:30;;;;;;;21.40;16.23;;;;;;;14.81;86.75;100665.31;4937304;29;20063;-69
2022/06/06 04:21:34;;;;;;;17.30;15.50;;;;;;;14.88;86.40;100673.50;4936945;29;20184;-69
2022/06/06 04:24:25;;;;;;;17.52;15.73;;;;;;;14.88;86.12;100678.91;4937195;29;20083;-68
2022/06/06 04:27:12;;;;;;;17.02;15.00;;;;;;;14.93;86.95;100673.75;4936721;29;20129;-68
2022/06/06 04:29:50;;;;;;;19.90;15.98;;;;;;;14.92;86.92;100669.41;5007964;28;20077;-68
2022/06/06 04:32:43;;;;;;;15.93;14.32;;;;;;;14.92;85.75;100680.22;5015657;28;20085;-68
2022/06/06 04:35:26;;;;;;;15.90;14.20;;;;;;;14.94;85.66;100675.44;5016070;28;20141;-68
2022/06/06 04:38:07;;;;;;;15.32;13.73;;;;;;;14.93;85.70;100673.75;5015702;28;20046;-69
2022/06/06 04:40:47;;;;;;;16.67;14.27;;;;;;;14.97;85.81;100678.59;5016276;28;20073;-69
2022/06/06 04:43:23;;;;;;;16.27;14.43;;;;;;;15.00;85.58;100682.78;5015729;28;20089;-70
2022/06/06 04:46:20;;;;;;;38.05;28.60;;;;;;;14.97;85.88;100689.41;5015297;28;20457;-68
2022/06/06 04:48:50;;;;;;;25.92;22.70;;;;;;;15.01;86.38;100689.84;5015221;28;20100;-68
2022/06/06 04:51:20;;;;;;;20.45;18.27;;;;;;;15.05;86.59;100693.00;5015582;28;20153;-70
2022/06/06 04:53:51;;;;;;;19.95;15.93;;;;;;;15.06;86.58;100687.44;5015409;28;20063;-69
2022/06/06 04:56:19;;;;;;;18.15;16.10;;;;;;;15.03;87.56;100687.81;5015381;28;20140;-69
2022/06/06 04:58:48;;;;;;;20.13;16.30;;;;;;;15.08;87.15;100701.56;5015340;28;20046;-69
2022/06/06 05:01:15;;;;;;;16.50;14.90;;;;;;;15.06;87.35;100686.59;5016304;28;20045;-69
2022/06/06 05:03:42;;;;;;;17.75;15.32;;;;;;;15.04;86.72;100702.16;5015455;28;20077;-70
2022/06/06 05:06:31;;;;;;;15.52;13.52;;;;;;;15.03;86.65;100697.78;5015636;28;20046;-69
2022/06/06 05:09:10;;;;;;;16.45;14.18;;;;;;;15.10;86.64;100704.94;5015300;28;20141;-69
2022/06/06 05:11:48;;;;;;;16.15;13.90;;;;;;;15.09;86.67;100707.84;5015754;28;20138;-69
2022/06/06 05:14:24;;;;;;;15.60;13.95;;;;;;;15.13;85.81;100717.22;5014558;28;20180;-69
2022/06/06 05:17:08;;;;;;;16.50;14.00;;;;;;;15.14;86.21;100718.91;4997468;28;20089;-70
2022/06/06 05:19:35;;;;;;;16.77;13.85;;;;;;;15.24;86.42;100724.84;5015553;28;20133;-70
2022/06/06 05:22:09;;;;;;;16.40;13.15;;;;;;;15.21;85.95;100734.16;5014720;28;20153;-69
2022/06/06 05:24:47;;;;;;;15.40;13.18;;;;;;;15.18;86.82;100739.09;5014738;28;20471;-70
2022/06/06 05:27:34;;;;;;;13.95;12.55;;;;;;;15.19;86.71;100740.81;5014933;28;20148;-69
2022/06/06 05:30:20;;;;;;;15.32;12.95;;;;;;;15.17;86.21;100743.66;5014944;28;20502;-68
2022/06/06 05:33:00;;;;;;;15.48;13.38;;;;;;;15.26;86.13;100747.13;5014670;28;20045;-68
2022/06/06 05:35:51;;;;;;;15.23;12.70;;;;;;;15.30;85.68;100758.38;5014586;28;20470;-68
2022/06/06 05:38:36;;;;;;;16.00;13.27;;;;;;;15.27;85.44;100761.47;5014635;28;20053;-70
2022/06/06 05:41:26;;;;;;;13.35;11.95;;;;;;;15.28;85.70;100757.72;5014222;28;20459;-69
2022/06/06 05:44:03;;;;;;;12.65;11.35;;;;;;;15.39;85.34;100765.31;5014143;28;20137;-70
2022/06/06 05:46:57;;;;;;;13.65;12.38;;;;;;;15.49;85.48;100773.97;5014884;28;20065;-70
2022/06/06 05:49:36;;;;;;;14.43;11.93;;;;;;;15.65;85.05;100779.19;5014284;28;20050;-70
2022/06/06 05:52:27;;;;;;;15.23;12.38;;;;;;;15.62;85.42;100778.69;5014589;28;20128;-70
2022/06/06 05:55:28;;;;;;;13.55;12.15;;;;;;;15.98;84.41;100783.22;5013787;28;20099;-68
2022/06/06 05:58:41;;;;;;;13.25;11.73;;;;;;;15.97;84.17;100787.78;5014140;28;20494;-69
2022/06/06 06:01:35;;;;;;;15.02;10.95;;;;;;;15.85;83.00;100789.38;4995349;28;20076;-69
2022/06/06 06:04:37;;;;;;;14.00;11.25;;;;;;;15.87;81.99;100806.22;5014706;28;20057;-68
2022/06/06 06:07:25;;;;;;;13.75;12.05;;;;;;;15.80;82.43;100808.03;5014130;28;20054;-69
2022/06/06 06:10:04;;;;;;;12.57;11.27;;;;;;;15.81;82.49;100807.00;5014787;28;20137;-69
2022/06/06 06:12:49;;;;;;;11.50;10.20;;;;;;;15.88;81.11;100816.00;5014106;28;20050;-69
2022/06/06 06:15:34;;;;;;;11.65;10.23;;;;;;;15.86;81.40;100808.09;5013907;28;20073;-69
2022/06/06 06:18:07;;;;;;;11.00;9.98;;;;;;;16.02;79.40;100828.66;5014017;28;20108;-70
2022/06/06 06:20:41;;;;;;;12.27;10.20;;;;;;;16.00;79.10;100833.41;5013933;28;20054;-69
2022/06/06 06:23:13;;;;;;;9.80;8.90;;;;;;;16.12;78.81;100839.13;5014064;28;20081;-69
2022/06/06 06:25:42;;;;;;;10.38;9.32;;;;;;;16.11;78.19;100843.72;5013811;28;20105;-70
2022/06/06 06:28:11;;;;;;;10.50;8.48;;;;;;;16.19;77.25;100845.44;5013699;28;20050;-70
2022/06/06 06:30:57;;;;;;;11.32;8.10;;;;;;;16.30;77.46;100839.53;5013483;28;20089;-70
2022/06/06 06:33:47;;;;;;;9.77;7.72;;;;;;;16.42;75.48;100837.94;5013993;28;20409;-70
2022/06/06 06:36:29;;;;;;;8.13;7.28;;;;;;;16.49;75.27;100832.59;5014456;28;20137;-70
2022/06/06 06:39:20;;;;;;;13.13;7.68;;;;;;;16.39;74.99;100851.03;5013544;28;20089;-69
2022/06/06 06:41:52;;;;;;;8.30;6.82;;;;;;;16.38;74.36;100844.78;5013761;28;20133;-70
2022/06/06 06:44:29;;;;;;;7.53;6.68;;;;;;;16.39;72.12;100841.03;5013259;28;20149;-70
2022/06/06 06:46:58;;;;;;;9.18;7.07;;;;;;;16.49;72.30;100853.41;5013610;28;20077;-70
2022/06/06 06:49:30;;;;;;;7.28;6.57;;;;;;;16.56;72.12;100857.03;5014029;28;20100;-70
2022/06/06 06:52:35;;;;;;;9.70;7.20;;;;;;;16.85;71.20;100858.72;5014609;28;20133;-70
2022/06/06 06:55:39;;;;;;;9.60;7.10;;;;;;;17.16;70.26;100852.00;5014084;28;20145;-70
2022/06/06 06:58:26;;;;;;;8.32;7.47;;;;;;;17.42;68.63;100859.47;5014002;28;20479;-70
2022/06/06 07:01:01;;;;;;;7.60;6.85;;;;;;;17.72;66.67;100852.72;5014065;28;20050;-69
2022/06/06 07:10:08;;;;;;;8.93;6.68;;;;;;;18.53;61.43;100849.91;5017204;28;20092;-70
2022/06/06 07:13:12;;;;;;;7.30;6.47;;;;;;;19.02;59.14;100847.78;5017480;28;20045;-70
2022/06/06 07:15:48;;;;;;;10.30;6.13;;;;;;;18.96;58.90;100846.72;5018426;28;20053;-70
2022/06/06 07:18:18;;;;;;;9.02;5.85;;;;;;;19.34;56.49;100848.69;5018040;28;20057;-69
2022/06/06 07:20:47;;;;;;;7.07;5.57;;;;;;;20.06;54.13;100849.41;5017361;28;20049;-70
2022/06/06 07:23:16;;;;;;;6.20;5.32;;;;;;;20.38;53.66;100846.66;5017479;28;20490;-68
2022/06/06 07:25:50;;;;;;;6.30;5.22;;;;;;;20.67;52.84;100850.63;5017574;28;20119;-69
2022/06/06 07:28:19;;;;;;;6.30;5.60;;;;;;;21.12;51.67;100840.31;5017245;28;20132;-70
2022/06/06 07:31:10;;;;;;;9.77;6.03;;;;;;;21.25;51.39;100846.66;5017174;28;20490;-70
2022/06/06 07:33:50;;;;;;;8.60;5.45;;;;;;;21.32;49.43;100853.75;5017255;28;20074;-69
2022/06/06 07:36:29;;;;;;;7.15;4.60;;;;;;;21.85;48.28;100846.78;5017270;28;20080;-70
2022/06/06 07:39:15;;;;;;;9.80;5.43;;;;;;;22.08;48.39;100832.31;5016911;28;20069;-69
2022/06/06 07:42:11;;;;;;;7.55;4.95;;;;;;;22.41;46.76;100823.59;5016633;28;20046;-69
2022/06/06 07:44:56;;;;;;;8.68;5.38;;;;;;;22.44;46.69;100831.31;5016391;28;20108;-70
2022/06/06 07:47:45;;;;;;;4.72;4.32;;;;;;;22.81;44.34;100828.41;5016719;28;20050;-69
2022/06/06 07:50:22;;;;;;;6.88;5.00;;;;;;;22.65;44.83;100826.38;5016969;28;20050;-69
2022/06/06 07:53:10;;;;;;;6.28;4.30;;;;;;;23.24;43.29;100822.50;5016919;28;20545;-70
2022/06/06 07:55:42;;;;;;;5.32;4.82;;;;;;;22.70;43.87;100823.75;5017004;28;20137;-70
2022/06/06 07:58:29;;;;;;;7.90;4.50;;;;;;;22.56;44.27;100831.34;5017455;28;20077;-70
2022/06/06 08:01:24;;;;;;;5.28;4.50;;;;;;;22.87;43.82;100815.66;5016760;28;20513;-69
2022/06/06 08:04:16;;;;;;;6.38;4.20;;;;;;;23.41;42.70;100816.28;5015698;28;20126;-70
2022/06/06 08:06:58;;;;;;;6.13;4.80;;;;;;;23.46;42.13;100824.56;5016656;28;20060;-70
2022/06/06 08:09:35;;;;;;;;;;;;;;;23.35;41.33;100828.19;5016896;28;20086;-69
2022/06/06 08:12:20;;;;;;;5.95;4.40;;;;;;;23.76;41.24;100831.75;5017004;28;19956;-71
2022/06/06 08:15:07;;;;;;;5.10;3.42;;;;;;;23.38;40.92;100824.97;5015077;28;20192;-70
2022/06/06 08:18:15;;;;;;;7.95;4.22;;;;;;;22.80;42.32;100833.00;5016041;28;20481;-70
2022/06/06 08:20:47;;;;;;;5.07;4.10;;;;;;;22.10;44.06;100832.94;5016079;28;20149;-70
2022/06/06 08:23:15;;;;;;;7.15;4.03;;;;;;;22.26;42.97;100832.25;5015695;28;20301;-70
2022/06/06 08:25:43;;;;;;;5.90;3.70;;;;;;;22.58;41.56;100831.97;5016258;28;20561;-70
2022/06/06 08:28:11;;;;;;;5.28;3.85;;;;;;;22.95;41.60;100826.25;5016121;28;20513;-70
2022/06/06 08:30:41;;;;;;;4.00;3.60;;;;;;;23.25;40.73;100826.06;5016101;28;20058;-70
2022/06/06 08:33:08;;;;;;;4.30;3.53;;;;;;;23.69;39.78;100829.97;5016113;28;20157;-70
2022/06/06 08:35:47;;;;;;;7.43;3.95;;;;;;;23.98;38.69;100828.03;5015681;28;20462;-70
2022/06/06 08:38:29;;;;;;;4.80;3.83;;;;;;;22.45;41.54;100824.78;5015815;28;20152;-69
2022/06/06 08:41:13;;;;;;;5.22;4.30;;;;;;;22.00;42.33;100827.22;5015996;28;20080;-69
2022/06/06 08:44:00;;;;;;;6.38;5.05;;;;;;;21.86;42.62;100823.84;5015232;28;20088;-70
2022/06/06 08:46:30;;;;;;;6.93;4.25;;;;;;;21.80;43.06;100822.88;5015860;28;20046;-69
2022/06/06 08:49:10;;;;;;;8.10;5.10;;;;;;;22.15;42.60;100819.41;5015518;28;20057;-70
2022/06/06 08:51:52;;;;;;;3.73;3.40;;;;;;;22.09;42.40;100818.44;5015899;28;20062;-70
2022/06/06 08:54:18;;;;;;;;;;;;;;;22.03;42.25;100813.91;5015734;28;20132;-70
2022/06/06 08:56:55;;;;;;;5.28;3.72;;;;;;;22.26;41.88;100821.31;5015691;28;19948;-70
2022/06/06 08:59:49;;;;;;;4.82;3.65;;;;;;;21.77;42.53;100811.53;5015746;28;20522;-70
2022/06/06 09:02:31;;;;;;;6.13;3.60;;;;;;;22.29;41.13;100814.53;5015308;28;20060;-68
2022/06/06 09:05:26;;;;;;;6.32;3.80;;;;;;;21.95;41.99;100811.53;4998089;28;20077;-69
2022/06/06 09:08:17;;;;;;;6.07;3.88;;;;;;;21.66;43.09;100813.16;5015535;28;20081;-71
2022/06/06 09:10:56;;;;;;;6.37;4.13;;;;;;;21.45;43.63;100813.69;5015602;28;20049;-70
2022/06/06 09:13:50;;;;;;;4.03;3.50;;;;;;;21.23;44.70;100807.88;5014993;28;20313;-69
2022/06/06 09:17:15;;;;;;;6.15;3.65;;;;;;;22.16;42.59;100810.16;5015211;28;20125;-70
2022/06/06 09:20:12;;;;;;;4.43;3.33;;;;;;;22.23;42.43;100799.94;4935971;29;20134;-70
2022/06/06 09:23:03;;;;;;;4.38;3.05;;;;;;;22.59;41.47;100803.53;4935426;29;20507;-70
2022/06/06 09:25:41;;;;;;;5.20;3.15;;;;;;;22.78;40.68;100807.00;4935171;29;20134;-69
2022/06/06 09:28:22;;;;;;;5.10;3.40;;;;;;;23.64;39.09;100807.97;4935254;29;20139;-71
2022/06/06 09:31:36;;;;;;;4.88;3.42;;;;;;;22.89;40.14;100808.03;4935526;29;20066;-70
2022/06/06 09:34:21;;;;;;;3.55;3.25;;;;;;;22.29;41.17;100815.41;4892821;29;20051;-69
2022/06/06 09:37:08;;;;;;;3.35;3.03;;;;;;;22.14;41.50;100816.91;4935399;29;20083;-69
2022/06/06 09:40:11;;;;;;;7.93;3.45;;;;;;;21.95;42.63;100825.19;4935879;29;20159;-69
2022/06/06 09:42:56;;;;;;;5.28;3.55;;;;;;;21.58;44.28;100810.78;4935240;29;20497;-70
2022/06/06 09:45:50;;;;;;;4.15;3.03;;;;;;;21.53;43.81;100816.94;4935461;29;20090;-70
2022/06/06 09:48:52;;;;;;;4.20;3.10;;;;;;;21.57;43.02;100822.78;4935150;29;20056;-68
2022/06/06 09:51:41;;;;;;;5.03;2.90;;;;;;;21.65;42.98;100813.41;5001486;28;20112;-68
2022/06/06 10:00:32;;;;;;;5.88;3.40;;;;;;;22.19;41.30;100808.84;5014480;28;20069;-70
2022/06/06 10:03:17;;;;;;;3.38;2.50;;;;;;;21.60;42.47;100811.38;5015077;28;20149;-69
2022/06/06 10:05:59;;;;;;;3.00;2.20;;;;;;;22.14;41.34;100805.97;5015646;28;20434;-69
2022/06/06 10:08:53;;;;;;;4.57;2.85;;;;;;;22.81;39.80;100811.97;5014807;28;20137;-68
2022/06/06 10:11:52;;;;;;;3.92;2.75;;;;;;;22.69;39.83;100814.72;5014660;28;20140;-68
2022/06/06 10:14:39;;;;;;;3.67;2.38;;;;;;;23.16;38.58;100809.22;4981477;28;20100;-69
2022/06/06 10:17:06;;;;;;;5.93;2.92;;;;;;;22.25;40.60;100810.63;5014508;28;20534;-69
2022/06/06 10:19:53;;;;;;;6.93;2.83;;;;;;;22.06;40.98;100815.34;5014426;28;20081;-67
2022/06/06 10:22:50;;;;;;;4.15;2.95;;;;;;;21.83;41.31;100816.13;5014124;28;20082;-68
2022/06/06 10:25:41;;;;;;;3.20;2.80;;;;;;;21.64;41.76;100818.03;5014720;28;20128;-67
2022/06/06 10:28:38;;;;;;;5.32;2.03;;;;;;;21.42;41.85;100820.41;5014837;28;20137;-68
2022/06/06 10:31:32;;;;;;;4.95;2.50;;;;;;;21.34;42.84;100827.03;5013666;28;20046;-68
2022/06/06 10:34:25;;;;;;;2.97;2.60;;;;;;;21.60;42.80;100825.03;5014040;28;20089;-68
2022/06/06 10:37:24;;;;;;;4.32;2.80;;;;;;;21.90;41.78;100825.03;5013611;28;20125;-68
2022/06/06 10:40:03;;;;;;;2.92;2.63;;;;;;;21.88;41.08;100829.09;5016913;28;20088;-68
2022/06/06 10:42:51;;;;;;;4.32;2.78;;;;;;;22.02;42.17;100823.19;5017453;28;20096;-69
2022/06/06 10:45:28;;;;;;;9.77;2.70;;;;;;;21.58;42.03;100822.53;5018322;28;20089;-70
2022/06/06 10:47:57;;;;;;;8.75;3.28;;;;;;;21.72;42.08;100823.16;5018412;28;20507;-69
2022/06/06 10:54:08;;;;;;;3.60;2.75;;;;;;;21.87;42.11;100821.94;5018130;28;20092;-68
2022/06/06 10:56:56;;;;;;;5.25;3.08;;;;;;;21.61;41.95;100818.50;5017732;28;20132;-69
2022/06/06 10:59:45;;;;;;;2.88;2.35;;;;;;;21.76;41.60;100821.63;5018580;28;20085;-70
2022/06/06 11:02:30;;;;;;;3.10;2.33;;;;;;;22.32;40.13;100812.19;5018825;28;20133;-68
2022/06/06 11:05:14;;;;;;;8.02;2.45;;;;;;;22.33;40.61;100822.06;5018521;28;20490;-69
2022/06/06 11:08:02;;;;;;;3.92;2.58;;;;;;;22.47;40.64;100805.47;5018185;28;20112;-67
2022/06/06 11:11:03;;;;;;;4.47;2.00;;;;;;;22.42;39.41;100808.03;5017007;28;20482;-67
2022/06/06 11:13:54;;;;;;;5.38;3.25;;;;;;;22.55;41.01;100807.81;5018139;28;20494;-68
2022/06/06 11:16:48;;;;;;;4.22;2.92;;;;;;;22.60;40.18;100807.94;5000786;28;20129;-69
2022/06/06 11:19:54;;;;;;;4.85;3.05;;;;;;;22.37;40.00;100802.44;5018085;28;20141;-69
2022/06/06 11:22:41;;;;;;;6.85;2.75;;;;;;;22.25;40.83;100805.16;4978936;28;20133;-68
2022/06/06 11:25:20;;;;;;;6.38;2.20;;;;;;;22.00;40.35;100808.09;5018255;28;20138;-69
2022/06/06 11:28:01;;;;;;;5.43;3.15;;;;;;;21.79;41.06;100810.28;5018260;28;20049;-69
2022/06/06 11:30:28;;;;;;;;;;;;;;;21.63;41.92;100808.16;5018823;28;20084;-69
2022/06/06 11:33:19;;;;;;;7.72;2.85;;;;;;;21.50;42.48;100811.94;5017963;28;19971;-68
2022/06/06 11:36:23;;;;;;;4.07;3.15;;;;;;;21.62;40.97;100806.50;5018498;28;20516;-68
2022/06/06 11:39:31;;;;;;;4.32;2.78;;;;;;;21.62;41.51;100803.78;5017605;28;20153;-68
2022/06/06 11:42:30;;;;;;;5.63;3.65;;;;;;;21.65;41.13;100800.59;5017759;28;20092;-69
2022/06/06 11:45:21;;;;;;;4.75;3.92;;;;;;;21.90;40.30;100786.81;4985229;28;20474;-68
2022/06/06 11:48:29;;;;;;;5.97;4.15;;;;;;;21.87;40.46;100776.34;5018034;28;20469;-68
2022/06/06 11:51:10;;;;;;;8.52;3.67;;;;;;;22.08;40.38;100783.16;4937713;29;20142;-69
2022/06/06 11:53:51;;;;;;;3.33;2.40;;;;;;;22.04;40.27;100782.78;4937622;29;20087;-69
2022/06/06 11:56:26;;;;;;;3.72;2.33;;;;;;;22.02;40.47;100781.38;4938884;29;20134;-68
2022/06/06 11:59:10;;;;;;;2.78;2.30;;;;;;;21.75;41.43;100778.19;4938243;29;20087;-70
2022/06/06 12:01:49;;;;;;;6.18;3.28;;;;;;;21.62;41.44;100784.66;4938466;29;20056;-69
2022/06/06 12:04:38;;;;;;;4.30;2.58;;;;;;;21.52;41.55;100784.41;4937357;29;20126;-68
2022/06/06 12:07:34;;;;;;;5.75;2.95;;;;;;;21.55;41.40;100782.03;4937220;29;20521;-68
2022/06/06 12:10:12;;;;;;;3.95;2.65;;;;;;;21.72;41.23;100786.84;4937170;29;20168;-67
2022/06/06 12:12:39;;;;;;;7.38;2.75;;;;;;;21.90;41.04;100777.78;4937054;29;20221;-68
2022/06/06 12:15:42;;;;;;;2.45;1.85;;;;;;;21.89;39.66;100782.41;4937470;29;20071;-67
2022/06/06 12:18:20;;;;;;;3.47;2.65;;;;;;;21.84;41.85;100774.94;4937210;29;20139;-68
2022/06/06 12:21:40;;;;;;;5.05;3.20;;;;;;;21.41;42.08;100782.47;4947119;28;20052;-69
2022/06/06 12:24:15;;;;;;;4.50;2.83;;;;;;;21.38;41.66;100787.31;4968636;28;20073;-67
2022/06/06 12:27:10;;;;;;;4.22;2.90;;;;;;;21.23;42.70;100778.69;5017268;28;20084;-69
2022/06/06 12:30:08;;;;;;;5.88;2.83;;;;;;;21.14;43.74;100780.06;5017503;28;20048;-69
2022/06/06 12:32:43;;;;;;;8.10;3.28;;;;;;;21.14;43.32;100775.44;5016573;28;20128;-69
2022/06/06 12:35:19;;;;;;;3.08;2.03;;;;;;;21.27;41.85;100776.34;5016389;28;20060;-69
2022/06/06 12:38:04;;;;;;;4.10;2.15;;;;;;;21.47;41.22;100770.63;5016223;28;20521;-67
2022/06/06 12:40:36;;;;;;;3.88;2.30;;;;;;;21.53;41.53;100765.06;5015643;28;20050;-67
2022/06/06 12:43:16;;;;;;;4.88;2.30;;;;;;;21.65;40.78;100769.72;5015652;28;20463;-68
2022/06/06 12:46:01;;;;;;;4.82;2.90;;;;;;;21.87;41.61;100764.59;5015570;28;20076;-67
2022/06/06 12:48:27;;;;;;;4.97;3.00;;;;;;;21.99;41.02;100755.34;5015587;28;20409;-69
2022/06/06 12:51:06;;;;;;;3.17;2.38;;;;;;;21.71;41.18;100755.16;5015075;28;20140;-67